Time;durP1;ratioP1;P1;durP2;ratioP2;P2;SDS_P1;SDS_P2;PMS_P1;PMS_P2;Temp;Humidity;BMP_temperature;BMP_pressure;BME280_temperature;BME280_humidity;BME280_pressure;Samples;Min_cycle;Max_cycle;Signal;HPM_P1;HPM_P2
2021/12/08 00:00:33;;;;;;;;;;;;;;;2.39;79.99;94179.47;5035267;28;970;-47
2021/12/08 00:03:00;;;;;;;;;;;;;;;2.46;79.20;94180.59;5035782;28;1911;-47
2021/12/08 00:05:26;;;;;;;;;;;;;;;2.42;78.03;94184.47;5035408;28;939;-47
2021/12/08 00:07:52;;;;;;;;;;;;;;;2.31;78.26;94193.31;5035874;28;1041;-47
2021/12/08 00:13:04;;;;;;;;;;;;;;;2.38;78.58;94206.00;5035744;28;950;-47
2021/12/08 00:15:34;;;;;;;;;;;;;;;2.40;78.84;94209.31;5035132;28;1054;-47
2021/12/08 00:18:01;;;;;;;;;;;;;;;2.40;78.29;94212.78;5035180;28;2037;-47
2021/12/08 00:20:30;;;;;;;;;;;;;;;2.44;78.73;94219.47;5035231;28;1038;-47
2021/12/08 00:22:56;;;;;;;;;;;;;;;2.40;79.05;94220.69;5035170;28;1987;-47
2021/12/08 00:25:22;;;;;;;;;;;;;;;2.36;78.86;94227.22;5035216;28;1258;-47
2021/12/08 00:27:49;;;;;;;;;;;;;;;2.36;79.31;94224.59;5035315;28;994;-47
2021/12/08 00:30:16;;;;;;;;;;;;;;;2.25;79.40;94222.03;5035095;28;1009;-47
2021/12/08 00:32:42;;;;;;;;;;;;;;;2.18;79.85;94219.09;5035252;28;1020;-47
2021/12/08 00:35:09;;;;;;;;;;;;;;;2.31;79.79;94229.41;5034638;28;1037;-47
2021/12/08 00:37:35;;;;;;;;;;;;;;;2.34;79.90;94230.00;5034925;28;1005;-47
2021/12/08 00:40:02;;;;;;;;;;;;;;;2.41;78.85;94232.94;5034856;28;1069;-47
2021/12/08 00:42:28;;;;;;;;;;;;;;;2.35;79.74;94233.44;5034919;28;1037;-47
2021/12/08 00:44:54;;;;;;;;;;;;;;;2.31;79.77;94234.69;5034674;28;1914;-47
2021/12/08 00:47:20;;;;;;;;;;;;;;;2.29;79.59;94234.00;5034645;28;1049;-47
2021/12/08 00:49:47;;;;;;;;;;;;;;;2.43;79.38;94236.28;5034438;28;953;-47
2021/12/08 00:52:14;;;;;;;;;;;;;;;2.53;79.22;94238.94;5035073;28;1025;-47
2021/12/08 00:54:40;;;;;;;;;;;;;;;2.38;79.34;94235.84;5034290;28;1029;-47
2021/12/08 00:57:06;;;;;;;;;;;;;;;2.40;79.56;94239.16;5035039;28;970;-47
2021/12/08 00:59:33;;;;;;;;;;;;;;;2.32;78.94;94239.00;5034335;28;1078;-47
2021/12/08 01:02:02;;;;;;;;;;;;;;;2.29;79.32;94236.63;5034749;28;997;-47
2021/12/08 01:04:32;;;;;;;;;;;;;;;2.30;79.42;94236.50;5034064;28;1914;-47
2021/12/08 01:06:59;;;;;;;;;;;;;;;2.38;79.03;94240.28;5034949;28;1064;-47
2021/12/08 01:09:25;;;;;;;;;;;;;;;2.48;79.36;94249.06;5034289;28;950;-47
2021/12/08 01:11:52;;;;;;;;;;;;;;;2.47;79.21;94245.59;5034027;28;993;-47
2021/12/08 01:14:18;;;;;;;;;;;;;;;2.53;78.27;94249.50;5034258;28;1884;-47
2021/12/08 01:16:44;;;;;;;;;;;;;;;2.53;79.04;94246.84;5033891;28;1061;-47
2021/12/08 01:19:10;;;;;;;;;;;;;;;2.44;80.16;94243.19;5033762;28;1116;-47
2021/12/08 01:21:36;;;;;;;;;;;;;;;2.39;79.70;94245.44;5034286;28;1020;-47
2021/12/08 01:24:02;;;;;;;;;;;;;;;2.41;80.03;94238.22;5034069;28;1914;-47
2021/12/08 01:26:28;;;;;;;;;;;;;;;2.36;80.09;94250.13;5033789;28;1112;-47
2021/12/08 01:28:57;;;;;;;;;;;;;;;2.31;80.32;94250.53;5033939;28;1029;-47
2021/12/08 01:31:24;;;;;;;;;;;;;;;2.32;80.73;94250.41;5033871;28;966;-47
2021/12/08 01:33:51;;;;;;;;;;;;;;;2.39;80.21;94248.06;5034076;28;1060;-47
2021/12/08 01:36:17;;;;;;;;;;;;;;;2.35;79.67;94249.28;5034095;28;1005;-47
2021/12/08 01:38:43;;;;;;;;;;;;;;;2.41;80.22;94256.69;5033978;28;934;-47
2021/12/08 01:41:10;;;;;;;;;;;;;;;2.56;79.25;94266.84;5034051;28;1088;-47
2021/12/08 01:46:31;;;;;;;;;;;;;;;2.39;79.32;94263.91;4996635;28;1126;-47
2021/12/08 01:48:57;;;;;;;;;;;;;;;2.40;79.69;94262.91;5033986;28;1068;-47
2021/12/08 01:51:25;;;;;;;;;;;;;;;2.45;80.23;94268.63;5033707;28;1057;-47
2021/12/08 01:53:52;;;;;;;;;;;;;;;2.56;79.13;94280.03;5033688;28;1109;-47
2021/12/08 01:56:19;;;;;;;;;;;;;;;2.54;79.25;94278.41;5033540;28;986;-47
2021/12/08 01:58:45;;;;;;;;;;;;;;;2.49;79.11;94272.66;5033780;28;987;-47
2021/12/08 02:01:13;;;;;;;;;;;;;;;2.46;79.71;94280.03;5032989;28;1907;-47
2021/12/08 02:03:40;;;;;;;;;;;;;;;2.40;80.64;94273.47;5033549;28;1910;-47
2021/12/08 02:06:07;;;;;;;;;;;;;;;2.27;80.23;94283.41;5033366;28;973;-47
2021/12/08 02:08:33;;;;;;;;;;;;;;;2.10;81.03;94284.84;5033594;28;1049;-47
2021/12/08 02:11:02;;;;;;;;;;;;;;;2.01;81.37;94286.50;5033201;28;1020;-47
2021/12/08 02:13:31;;;;;;;;;;;;;;;2.14;81.73;94295.03;5033564;28;1060;-47
2021/12/08 02:15:59;;;;;;;;;;;;;;;2.20;81.45;94293.66;5032575;28;1903;-47
2021/12/08 02:18:25;;;;;;;;;;;;;;;2.21;81.42;94287.41;5033148;28;1119;-47
2021/12/08 02:20:51;;;;;;;;;;;;;;;2.23;81.61;94297.84;5033221;28;1060;-47
2021/12/08 02:23:18;;;;;;;;;;;;;;;2.29;81.27;94297.28;5033310;28;1906;-47
2021/12/08 02:25:45;;;;;;;;;;;;;;;2.36;81.45;94302.91;5032542;28;1273;-47
2021/12/08 02:28:11;;;;;;;;;;;;;;;2.32;80.62;94304.97;5033146;28;1065;-47
2021/12/08 02:30:53;;;;;;;;;;;;;;;2.30;80.66;94304.25;5032839;28;994;-47
2021/12/08 02:47:17;;;;;;;;;;;;;;;2.61;78.62;94318.25;5032635;28;1098;-46
2021/12/08 02:49:44;;;;;;;;;;;;;;;2.59;78.50;94322.00;5032820;28;1001;-47
2021/12/08 02:52:11;;;;;;;;;;;;;;;2.70;77.86;94329.84;5032780;28;1049;-47
2021/12/08 02:54:39;;;;;;;;;;;;;;;2.69;77.54;94326.38;5032285;28;1315;-47
2021/12/08 02:57:06;;;;;;;;;;;;;;;2.63;78.17;94326.06;5032589;28;1069;-47
2021/12/08 02:59:32;;;;;;;;;;;;;;;2.68;78.07;94326.50;5032206;28;1073;-47
2021/12/08 03:01:58;;;;;;;;;;;;;;;2.81;77.32;94324.47;5032437;28;1005;-47
2021/12/08 03:04:25;;;;;;;;;;;;;;;2.65;77.30;94324.13;5032822;28;1918;-47
2021/12/08 03:06:51;;;;;;;;;;;;;;;2.62;77.96;94327.00;5032487;28;982;-47
2021/12/08 03:09:17;;;;;;;;;;;;;;;2.80;77.12;94328.06;5032606;28;1174;-47
2021/12/08 03:11:43;;;;;;;;;;;;;;;2.83;76.96;94335.72;5047443;28;1136;-47
2021/12/08 03:14:11;;;;;;;;;;;;;;;2.87;76.39;94331.84;5032481;28;1033;-47
2021/12/08 03:16:39;;;;;;;;;;;;;;;2.85;75.48;94335.59;5032012;28;1056;-47
2021/12/08 03:19:05;;;;;;;;;;;;;;;2.85;75.17;94341.69;5032349;28;1252;-47
2021/12/08 03:21:32;;;;;;;;;;;;;;;2.84;74.00;94340.00;5032036;28;1080;-47
2021/12/08 03:26:35;;;;;;;;;;;;;;;2.90;74.79;94343.91;5012358;28;1042;-47
2021/12/08 03:29:07;;;;;;;;;;;;;;;2.97;74.67;94347.69;5012711;28;1021;-47
2021/12/08 03:31:41;;;;;;;;;;;;;;;2.86;75.61;94346.00;5012206;28;1100;-47
2021/12/08 03:34:07;;;;;;;;;;;;;;;2.89;74.49;94351.00;5013852;28;1018;-47
2021/12/08 03:36:33;;;;;;;;;;;;;;;2.95;74.59;94352.28;5016314;28;982;-47
2021/12/08 03:39:01;;;;;;;;;;;;;;;3.09;73.42;94354.56;5016312;28;974;-47
2021/12/08 03:41:31;;;;;;;;;;;;;;;3.09;74.51;94351.91;5015915;28;1137;-47
2021/12/08 03:43:57;;;;;;;;;;;;;;;2.93;74.61;94351.59;5016487;28;1918;-47
2021/12/08 03:46:26;;;;;;;;;;;;;;;2.81;75.28;94353.50;5016026;28;994;-47
2021/12/08 03:48:53;;;;;;;;;;;;;;;2.77;74.77;94345.97;5016404;28;1052;-47
2021/12/08 03:51:19;;;;;;;;;;;;;;;2.79;75.57;94352.81;5016137;28;986;-47
2021/12/08 03:53:46;;;;;;;;;;;;;;;2.75;74.99;94354.00;5016124;28;1057;-47
2021/12/08 03:56:12;;;;;;;;;;;;;;;2.85;75.87;94362.00;5016145;28;1060;-47
2021/12/08 03:58:38;;;;;;;;;;;;;;;2.87;76.24;94362.69;5016175;28;1037;-47
2021/12/08 04:01:06;;;;;;;;;;;;;;;2.94;75.62;94369.13;5015798;28;1103;-47
2021/12/08 04:03:33;;;;;;;;;;;;;;;2.93;75.48;94372.72;5016227;28;1991;-47
2021/12/08 04:06:14;;;;;;;;;;;;;;;2.88;75.52;94365.19;5015927;28;1098;-47
2021/12/08 04:08:44;;;;;;;;;;;;;;;2.88;75.45;94380.19;5016041;28;973;-47
2021/12/08 04:11:10;;;;;;;;;;;;;;;2.93;75.22;94373.53;5015451;28;1213;-47
2021/12/08 04:13:48;;;;;;;;;;;;;;;2.87;75.80;94379.34;5015755;28;1082;-47
2021/12/08 04:16:17;;;;;;;;;;;;;;;2.87;75.85;94389.91;5015409;28;1033;-47
2021/12/08 04:18:43;;;;;;;;;;;;;;;2.81;77.08;94387.81;5015542;28;1091;-47
2021/12/08 04:21:10;;;;;;;;;;;;;;;2.82;76.16;94392.13;5015583;28;981;-47
2021/12/08 04:23:38;;;;;;;;;;;;;;;2.81;76.04;94389.59;5020570;28;2005;-47
2021/12/08 04:26:16;;;;;;;;;;;;;;;2.81;76.39;94393.09;5035176;28;1313;-47
2021/12/08 04:28:42;;;;;;;;;;;;;;;2.86;76.00;94397.97;5035340;28;1904;-46
2021/12/08 04:31:25;;;;;;;;;;;;;;;2.74;76.85;94398.06;5035067;28;1056;-46
2021/12/08 04:33:53;;;;;;;;;;;;;;;2.61;77.38;94404.53;5035479;28;1044;-47
2021/12/08 04:36:21;;;;;;;;;;;;;;;2.72;77.94;94413.19;5034866;28;1029;-47
2021/12/08 04:38:52;;;;;;;;;;;;;;;2.74;78.20;94419.19;5035034;28;1022;-47
2021/12/08 04:41:25;;;;;;;;;;;;;;;2.73;79.10;94419.31;5034631;28;1097;-47
2021/12/08 04:44:34;;;;;;;;;;;;;;;2.81;77.31;94422.13;5035069;28;1915;-47
2021/12/08 04:52:15;;;;;;;;;;;;;;;2.42;78.97;94424.56;5034751;28;977;-47
2021/12/08 05:08:43;;;;;;;;;;;;;;;2.30;80.43;94450.16;5034494;28;1041;-47
2021/12/08 05:11:16;;;;;;;;;;;;;;;2.42;81.53;94460.66;5034412;28;965;-47
2021/12/08 05:13:43;;;;;;;;;;;;;;;2.47;80.83;94456.66;5034489;28;1053;-46
2021/12/08 05:16:11;;;;;;;;;;;;;;;2.60;79.99;94466.19;5034274;28;1049;-46
2021/12/08 05:18:39;;;;;;;;;;;;;;;2.60;78.42;94472.31;5034111;28;1133;-47
2021/12/08 05:21:25;;;;;;;;;;;;;;;2.60;77.58;94474.09;5034489;28;1036;-47
2021/12/08 05:23:59;;;;;;;;;;;;;;;2.53;78.18;94476.44;5033780;28;2010;-47
2021/12/08 05:26:31;;;;;;;;;;;;;;;2.54;79.50;94478.94;5033947;28;1250;-47
2021/12/08 05:28:59;;;;;;;;;;;;;;;2.54;80.57;94478.94;5034102;28;1101;-47
2021/12/08 05:31:27;;;;;;;;;;;;;;;2.58;79.67;94489.22;5033964;28;1100;-46
2021/12/08 05:33:53;;;;;;;;;;;;;;;2.73;78.70;94486.16;5034052;28;973;-46
2021/12/08 05:36:20;;;;;;;;;;;;;;;2.76;79.58;94492.13;5033881;28;1104;-46
2021/12/08 05:38:47;;;;;;;;;;;;;;;2.67;79.97;94496.38;5033521;28;1117;-45
2021/12/08 05:41:22;;;;;;;;;;;;;;;2.60;80.05;94498.72;5033981;28;1046;-45
2021/12/08 05:43:49;;;;;;;;;;;;;;;2.56;79.89;94501.72;5033627;28;1910;-46
2021/12/08 05:46:16;;;;;;;;;;;;;;;2.53;79.83;94508.09;5033880;28;990;-46
2021/12/08 05:48:42;;;;;;;;;;;;;;;2.56;80.62;94507.81;5033430;28;1065;-46
2021/12/08 05:51:11;;;;;;;;;;;;;;;2.49;80.61;94502.25;5033969;28;1041;-46
2021/12/08 05:53:38;;;;;;;;;;;;;;;2.51;80.62;94504.75;5033223;28;966;-46
2021/12/08 05:56:05;;;;;;;;;;;;;;;2.52;80.66;94512.56;5033945;28;1160;-46
2021/12/08 05:58:31;;;;;;;;;;;;;;;2.57;81.19;94508.69;5032935;28;1134;-46
2021/12/08 06:01:00;;;;;;;;;;;;;;;2.58;81.15;94512.97;5033868;28;983;-46
2021/12/08 06:03:26;;;;;;;;;;;;;;;2.59;80.94;94512.03;5033113;28;1997;-46
2021/12/08 06:05:54;;;;;;;;;;;;;;;2.60;80.20;94511.91;5033550;28;1073;-46
2021/12/08 06:08:20;;;;;;;;;;;;;;;2.43;80.68;94523.00;5033203;28;962;-46
2021/12/08 06:10:46;;;;;;;;;;;;;;;2.45;80.64;94521.09;5033484;28;1096;-46
2021/12/08 06:13:14;;;;;;;;;;;;;;;2.42;81.11;94516.91;5033064;28;1005;-46
2021/12/08 06:15:42;;;;;;;;;;;;;;;2.51;80.93;94523.22;5033068;28;1112;-46
2021/12/08 06:18:08;;;;;;;;;;;;;;;2.62;80.79;94528.44;5032751;28;1166;-46
2021/12/08 06:20:35;;;;;;;;;;;;;;;2.62;81.15;94528.44;5033470;28;1056;-46
2021/12/08 06:23:02;;;;;;;;;;;;;;;2.64;80.69;94526.53;5032693;28;1991;-46
2021/12/08 06:25:28;;;;;;;;;;;;;;;2.75;80.56;94530.88;5032916;28;1387;-47
2021/12/08 06:27:54;;;;;;;;;;;;;;;2.68;80.37;94537.66;5032877;28;1094;-46
2021/12/08 06:30:22;;;;;;;;;;;;;;;2.60;81.21;94532.16;5033293;28;989;-46
2021/12/08 06:32:48;;;;;;;;;;;;;;;2.62;81.37;94536.38;5032537;28;1085;-46
2021/12/08 06:35:18;;;;;;;;;;;;;;;2.58;80.15;94542.00;5032950;28;1065;-46
2021/12/08 06:37:44;;;;;;;;;;;;;;;2.56;80.02;94542.13;5032573;28;1034;-47
2021/12/08 06:40:13;;;;;;;;;;;;;;;2.54;79.86;94544.94;5033061;28;1052;-47
2021/12/08 06:42:41;;;;;;;;;;;;;;;2.53;79.17;94542.41;5032634;28;1057;-47
2021/12/08 06:45:11;;;;;;;;;;;;;;;2.58;79.13;94547.28;5032753;28;1902;-47
2021/12/08 06:47:37;;;;;;;;;;;;;;;2.61;78.68;94537.31;5032702;28;1025;-47
2021/12/08 06:50:07;;;;;;;;;;;;;;;2.65;78.81;94541.38;5032949;28;1014;-47
2021/12/08 06:52:36;;;;;;;;;;;;;;;2.77;79.26;94536.91;5032546;28;1060;-47
2021/12/08 06:55:08;;;;;;;;;;;;;;;2.90;79.30;94541.97;5032830;28;1040;-47
2021/12/08 06:57:42;;;;;;;;;;;;;;;2.90;80.04;94537.53;5032708;28;1053;-47
2021/12/08 07:00:57;;;;;;;;;;;;;;;2.93;79.71;94545.19;5032545;28;1105;-47
2021/12/08 07:06:05;;;;;;;;;;;;;;;3.00;79.30;94549.94;5032607;28;993;-47
2021/12/08 07:08:33;;;;;;;;;;;;;;;3.03;77.92;94544.41;5031511;28;978;-47
2021/12/08 07:10:59;;;;;;;;;;;;;;;3.13;78.31;94547.94;5032514;28;1022;-47
2021/12/08 07:13:27;;;;;;;;;;;;;;;3.26;76.43;94548.56;5032345;28;998;-47
2021/12/08 07:15:56;;;;;;;;;;;;;;;3.39;76.70;94558.91;5032488;28;990;-47
2021/12/08 07:18:51;;;;;;;;;;;;;;;3.43;76.63;94562.97;5032039;28;1320;-47
2021/12/08 07:21:19;;;;;;;;;;;;;;;3.54;75.66;94566.50;5032471;28;1001;-47
2021/12/08 07:23:49;;;;;;;;;;;;;;;3.54;75.50;94564.69;5032164;28;1906;-47
2021/12/08 07:26:20;;;;;;;;;;;;;;;3.53;75.53;94570.97;5032213;28;1297;-47
2021/12/08 07:28:47;;;;;;;;;;;;;;;3.52;75.63;94574.56;5032188;28;1037;-47
2021/12/08 07:31:16;;;;;;;;;;;;;;;3.44;74.91;94579.69;5032267;28;1053;-47
2021/12/08 07:33:43;;;;;;;;;;;;;;;3.36;76.19;94582.13;5032263;28;926;-47
2021/12/08 07:36:14;;;;;;;;;;;;;;;3.40;75.20;94578.28;5032100;28;1042;-47
2021/12/08 07:38:40;;;;;;;;;;;;;;;3.51;75.08;94580.81;5032179;28;986;-47
2021/12/08 07:41:12;;;;;;;;;;;;;;;3.50;74.32;94589.72;5032397;28;966;-47
2021/12/08 07:43:40;;;;;;;;;;;;;;;3.50;73.80;94579.97;5032140;28;1985;-47
2021/12/08 07:46:12;;;;;;;;;;;;;;;3.63;73.58;94582.41;5032346;28;1057;-48
2021/12/08 07:48:41;;;;;;;;;;;;;;;3.60;71.71;94587.09;5031851;28;963;-48
2021/12/08 07:51:15;;;;;;;;;;;;;;;3.72;72.97;94589.53;5032177;28;1096;-47
2021/12/08 07:53:42;;;;;;;;;;;;;;;3.90;72.55;94586.25;5031809;28;2006;-47
2021/12/08 07:56:09;;;;;;;;;;;;;;;4.05;71.33;94590.19;5032227;28;1056;-48
2021/12/08 07:58:36;;;;;;;;;;;;;;;4.14;71.92;94598.31;5031691;28;946;-48
2021/12/08 08:01:07;;;;;;;;;;;;;;;4.00;72.43;94599.50;5032553;28;1422;-48
2021/12/08 08:03:33;;;;;;;;;;;;;;;3.92;73.34;94600.19;5031319;28;1906;-48
2021/12/08 08:06:01;;;;;;;;;;;;;;;3.91;72.25;94606.44;5031973;28;1025;-48
2021/12/08 08:08:31;;;;;;;;;;;;;;;3.62;72.56;94603.66;5031984;28;1069;-48
2021/12/08 08:11:17;;;;;;;;;;;;;;;3.67;73.33;94612.88;5032333;28;1062;-48
2021/12/08 08:13:43;;;;;;;;;;;;;;;3.81;74.97;94613.50;5031530;28;1132;-48
2021/12/08 08:16:11;;;;;;;;;;;;;;;3.88;72.25;94615.47;5031706;28;1049;-48
2021/12/08 08:18:41;;;;;;;;;;;;;;;3.89;72.04;94624.25;5031377;28;1079;-48
2021/12/08 08:21:09;;;;;;;;;;;;;;;3.90;70.76;94626.75;5034554;28;1123;-48
2021/12/08 08:23:35;;;;;;;;;;;;;;;3.93;73.20;94625.66;5035155;28;1906;-48
2021/12/08 08:26:03;;;;;;;;;;;;;;;3.93;71.68;94630.97;5035557;28;1277;-48
2021/12/08 08:28:29;;;;;;;;;;;;;;;4.15;71.68;94629.91;5034872;28;1053;-47
2021/12/08 08:30:58;;;;;;;;;;;;;;;4.21;70.49;94633.81;5035814;28;1029;-48
2021/12/08 08:33:25;;;;;;;;;;;;;;;4.32;72.34;94625.78;5035260;28;1061;-48
2021/12/08 08:35:53;;;;;;;;;;;;;;;4.35;70.61;94636.09;5035125;28;1030;-48
2021/12/08 08:38:30;;;;;;;;;;;;;;;4.40;69.58;94631.25;5034965;28;1025;-47
2021/12/08 08:41:01;;;;;;;;;;;;;;;4.48;68.95;94619.97;5035449;28;1005;-47
2021/12/08 08:43:27;;;;;;;;;;;;;;;4.55;67.98;94618.41;5034768;28;2015;-52
2021/12/08 08:45:58;;;;;;;;;;;;;;;4.56;68.40;94625.41;5034970;28;1150;-47
2021/12/08 08:48:32;;;;;;;;;;;;;;;4.52;70.10;94621.38;5034715;28;1086;-47
2021/12/08 08:50:58;;;;;;;;;;;;;;;4.37;70.51;94634.16;5034894;28;966;-47
2021/12/08 08:53:27;;;;;;;;;;;;;;;4.22;71.17;94630.22;5034901;28;978;-47
2021/12/08 08:56:03;;;;;;;;;;;;;;;4.20;70.62;94630.34;5034901;28;1024;-47
2021/12/08 08:58:31;;;;;;;;;;;;;;;4.09;70.00;94631.28;5034690;28;1037;-47
2021/12/08 09:01:17;;;;;;;;;;;;;;;4.10;70.27;94627.66;5034859;28;1038;-47
2021/12/08 09:03:46;;;;;;;;;;;;;;;4.13;69.83;94634.50;5033158;28;1910;-47
2021/12/08 09:06:15;;;;;;;;;;;;;;;4.29;71.32;94624.25;5034343;28;1046;-47
2021/12/08 09:08:42;;;;;;;;;;;;;;;4.49;68.76;94622.44;5033227;28;1793;-47
2021/12/08 09:11:30;;;;;;;;;;;;;;;4.58;69.25;94623.44;5035783;28;2033;-47
2021/12/08 09:14:01;;;;;;;;;;;;;;;4.71;67.60;94623.19;5035318;28;1194;-47
2021/12/08 09:16:30;;;;;;;;;;;;;;;5.26;67.72;94615.50;5035534;28;1226;-47
2021/12/08 09:19:05;;;;;;;;;;;;;;;6.01;64.92;94615.63;5035269;28;1208;-48
2021/12/08 09:21:34;;;;;;;;;;;;;;;5.94;63.50;94616.28;5035544;28;974;-48
2021/12/08 09:24:08;;;;;;;;;;;;;;;5.64;65.01;94608.44;5035157;28;1935;-48
2021/12/08 09:26:36;;;;;;;;;;;;;;;5.63;65.48;94616.53;5035146;28;1309;-48
2021/12/08 09:29:14;;;;;;;;;;;;;;;5.76;64.32;94614.41;5035327;28;1049;-48
2021/12/08 09:31:44;;;;;;;;;;;;;;;5.66;64.54;94606.47;5034599;28;1008;-48
2021/12/08 09:34:16;;;;;;;;;;;;;;;5.58;64.45;94613.50;5035258;28;1042;-48
2021/12/08 09:36:46;;;;;;;;;;;;;;;5.41;66.89;94623.03;5035148;28;1044;-48
2021/12/08 09:39:28;;;;;;;;;;;;;;;5.33;65.75;94609.63;5035386;28;953;-48
2021/12/08 09:41:58;;;;;;;;;;;;;;;5.09;65.04;94606.44;5035137;28;1298;-48
2021/12/08 09:44:37;;;;;;;;;;;;;;;5.46;65.71;94607.50;5034969;28;1913;-48
2021/12/08 09:47:03;;;;;;;;;;;;;;;6.31;62.29;94604.84;5034997;28;977;-48
2021/12/08 09:49:30;;;;;;;;;;;;;;;7.74;58.26;94593.28;5034699;28;1877;-48
2021/12/08 09:51:58;;;;;;;;;;;;;;;9.70;53.58;94595.56;5035110;28;978;-47
2021/12/08 09:54:25;;;;;;;;;;;;;;;12.09;47.97;94598.53;5034992;28;990;-47
2021/12/08 09:56:53;;;;;;;;;;;;;;;16.05;38.99;94603.88;5035023;28;1145;-48
2021/12/08 09:59:21;;;;;;;;;;;;;;;18.14;34.47;94605.28;5034495;28;1136;-48
2021/12/08 10:01:49;;;;;;;;;;;;;;;18.50;32.58;94603.69;5034563;28;1037;-48
2021/12/08 10:04:15;;;;;;;;;;;;;;;17.06;34.84;94598.06;5034665;28;1989;-48
2021/12/08 10:06:44;;;;;;;;;;;;;;;14.27;40.04;94594.00;5034777;28;1094;-48
2021/12/08 10:09:10;;;;;;;;;;;;;;;12.18;44.38;94591.25;5034453;28;2006;-48
2021/12/08 10:11:37;;;;;;;;;;;;;;;11.12;46.56;94593.84;5034434;28;1053;-47
2021/12/08 10:14:03;;;;;;;;;;;;;;;10.75;47.90;94591.88;5034330;28;1316;-48
2021/12/08 10:16:30;;;;;;;;;;;;;;;11.30;46.19;94584.66;5034140;28;1202;-48
2021/12/08 10:18:56;;;;;;;;;;;;;;;14.47;40.94;94579.84;5034119;28;1121;-47
2021/12/08 10:21:36;;;;;;;;;;;;;;;18.24;34.64;94583.13;5034571;28;1032;-48
2021/12/08 10:24:11;;;;;;;;;;;;;;;19.95;31.34;94581.47;5033991;28;1980;-48
2021/12/08 10:26:37;;;;;;;;;;;;;;;20.99;29.67;94586.31;5034182;28;1037;-48
2021/12/08 10:29:05;;;;;;;;;;;;;;;21.09;28.23;94580.25;5033958;28;983;-48
2021/12/08 10:31:33;;;;;;;;;;;;;;;21.21;28.66;94579.16;5034294;28;1054;-48
2021/12/08 10:39:07;;;;;;;;;;;;;;;21.59;26.72;94574.22;5034075;28;1052;-48
2021/12/08 10:41:42;;;;;;;;;;;;;;;20.78;27.13;94582.34;5034001;28;1064;-48
2021/12/08 10:44:09;;;;;;;;;;;;;;;19.95;29.61;94568.72;5032652;28;1979;-48
2021/12/08 10:46:37;;;;;;;;;;;;;;;19.11;30.64;94566.78;5033874;28;1089;-48
2021/12/08 10:49:26;;;;;;;;;;;;;;;16.84;33.93;94564.28;5033968;28;1052;-48
2021/12/08 10:54:37;;;;;;;;;;;;;;;11.04;45.01;94559.13;5033928;28;982;-48
2021/12/08 10:57:17;;;;;;;;;;;;;;;10.41;46.73;94571.69;5033529;28;1307;-47
2021/12/08 10:59:59;;;;;;;;;;;;;;;9.55;47.55;94563.41;5033739;28;1984;-48
2021/12/08 11:02:37;;;;;;;;;;;;;;;9.24;50.05;94571.28;5033599;28;1057;-48
2021/12/08 11:05:04;;;;;;;;;;;;;;;8.64;51.16;94572.38;5033375;28;1914;-48
2021/12/08 11:07:31;;;;;;;;;;;;;;;7.74;54.03;94572.84;5033842;28;966;-48
2021/12/08 11:09:57;;;;;;;;;;;;;;;7.37;58.27;94573.94;5033698;28;1049;-47
2021/12/08 11:12:40;;;;;;;;;;;;;;;8.09;53.08;94586.16;5033705;28;1002;-47
2021/12/08 11:15:18;;;;;;;;;;;;;;;8.51;54.76;94582.66;5033744;28;1029;-48
2021/12/08 11:21:13;;;;;;;;;;;;;;;8.20;55.25;94589.34;3328442;28;2077;-48
2021/12/08 11:23:44;;;;;;;;;;;;;;;7.82;54.16;94588.00;5033360;28;1981;-48
2021/12/08 11:26:12;;;;;;;;;;;;;;;7.38;54.58;94593.38;5033344;28;1345;-48
2021/12/08 11:28:40;;;;;;;;;;;;;;;7.66;55.04;94587.91;5033611;28;1058;-48
2021/12/08 11:31:09;;;;;;;;;;;;;;;7.78;55.58;94582.19;5033365;28;1060;-47
2021/12/08 11:33:37;;;;;;;;;;;;;;;7.15;56.55;94582.41;5033547;28;1129;-48
2021/12/08 11:36:11;;;;;;;;;;;;;;;6.44;57.97;94581.41;5033260;28;1036;-47
2021/12/08 11:38:37;;;;;;;;;;;;;;;6.14;60.03;94575.44;5033700;28;1015;-49
2021/12/08 11:41:08;;;;;;;;;;;;;;;5.94;61.37;94573.81;5033398;28;1059;-47
2021/12/08 11:43:34;;;;;;;;;;;;;;;6.15;62.24;94573.63;5033531;28;1989;-47
2021/12/08 11:46:13;;;;;;;;;;;;;;;6.64;60.47;94569.69;5033543;28;1028;-47
2021/12/08 11:48:49;;;;;;;;;;;;;;;6.92;60.74;94566.09;5033358;28;1032;-48
2021/12/08 11:51:15;;;;;;;;;;;;;;;6.91;58.00;94565.28;5033487;28;1013;-47
2021/12/08 11:53:41;;;;;;;;;;;;;;;6.43;59.91;94555.84;5033077;28;1085;-47
2021/12/08 11:56:27;;;;;;;;;;;;;;;6.32;60.46;94554.25;5035760;28;1063;-47
2021/12/08 11:58:54;;;;;;;;;;;;;;;6.25;60.68;94550.50;5037017;28;1020;-47
2021/12/08 12:01:21;;;;;;;;;;;;;;;6.17;60.70;94550.44;5037259;28;1052;-47
2021/12/08 12:03:47;;;;;;;;;;;;;;;6.02;62.18;94552.75;5036919;28;1903;-47
2021/12/08 12:06:13;;;;;;;;;;;;;;;6.09;61.98;94555.63;5037037;28;978;-47
2021/12/08 12:08:39;;;;;;;;;;;;;;;5.86;61.58;94551.53;5037004;28;989;-47
2021/12/08 12:11:06;;;;;;;;;;;;;;;5.97;62.26;94561.13;5036468;28;1116;-48
2021/12/08 12:13:32;;;;;;;;;;;;;;;6.11;61.79;94556.31;5036620;28;2007;-47
2021/12/08 12:15:58;;;;;;;;;;;;;;;6.16;62.18;94559.38;5036742;28;1214;-47
2021/12/08 12:18:30;;;;;;;;;;;;;;;6.27;63.61;94566.31;5036406;28;1046;-47
2021/12/08 12:21:14;;;;;;;;;;;;;;;6.38;62.85;94564.25;5036367;28;1118;-48
2021/12/08 12:24:07;;;;;;;;;;;;;;;6.16;63.74;94572.63;5036434;28;1975;-47
2021/12/08 12:26:36;;;;;;;;;;;;;;;6.42;63.23;94567.47;5036676;28;1056;-47
2021/12/08 12:29:08;;;;;;;;;;;;;;;6.26;62.30;94557.50;5036482;28;1062;-47
2021/12/08 12:31:53;;;;;;;;;;;;;;;6.27;61.73;94561.81;5036368;28;1053;-47
2021/12/08 12:34:32;;;;;;;;;;;;;;;6.08;62.30;94561.94;5036169;28;1093;-47
2021/12/08 12:36:59;;;;;;;;;;;;;;;5.73;63.48;94560.78;5036226;28;1053;-47
2021/12/08 12:39:26;;;;;;;;;;;;;;;5.57;64.01;94559.59;5036352;28;985;-47
2021/12/08 12:42:13;;;;;;;;;;;;;;;5.68;64.13;94558.59;5036251;28;986;-47
2021/12/08 12:44:41;;;;;;;;;;;;;;;5.69;64.03;94554.94;5036094;28;1906;-47
2021/12/08 12:47:14;;;;;;;;;;;;;;;5.88;64.94;94562.00;5036072;28;966;-47
2021/12/08 12:49:42;;;;;;;;;;;;;;;6.12;65.84;94561.47;5051191;28;1074;-47
2021/12/08 12:52:10;;;;;;;;;;;;;;;5.88;64.28;94567.31;5036210;28;1013;-47
2021/12/08 12:54:37;;;;;;;;;;;;;;;5.58;66.13;94571.91;5035713;28;1073;-47
2021/12/08 12:57:06;;;;;;;;;;;;;;;5.84;66.46;94569.44;5035889;28;982;-47
2021/12/08 12:59:38;;;;;;;;;;;;;;;5.97;65.10;94571.75;5036081;28;1283;-47
2021/12/08 13:02:21;;;;;;;;;;;;;;;5.68;66.31;94572.69;5035852;28;1029;-47
2021/12/08 13:04:52;;;;;;;;;;;;;;;5.51;66.52;94572.63;5035941;28;1902;-47
2021/12/08 13:07:18;;;;;;;;;;;;;;;5.33;65.79;94581.31;5034488;28;1891;-47
2021/12/08 13:09:47;;;;;;;;;;;;;;;5.29;66.57;94574.59;5035620;28;1029;-46
2021/12/08 13:12:20;;;;;;;;;;;;;;;5.33;66.92;94578.66;5035508;28;1006;-47
2021/12/08 13:14:47;;;;;;;;;;;;;;;5.30;66.18;94581.59;5035758;28;1041;-47
2021/12/08 13:17:13;;;;;;;;;;;;;;;5.21;67.14;94585.94;5035226;28;1230;-47
2021/12/08 13:19:59;;;;;;;;;;;;;;;5.24;67.17;94582.19;5035976;28;1048;-47
2021/12/08 13:22:44;;;;;;;;;;;;;;;5.29;67.33;94582.56;5035166;28;1129;-47
2021/12/08 13:28:12;;;;;;;;;;;;;;;5.40;66.63;94595.66;5035397;28;1005;-47
2021/12/08 13:30:53;;;;;;;;;;;;;;;5.45;66.90;94588.13;5035509;28;965;-47
2021/12/08 13:33:22;;;;;;;;;;;;;;;5.30;67.99;94594.84;5035294;28;1106;-47
2021/12/08 13:35:48;;;;;;;;;;;;;;;5.18;67.70;94599.47;5035077;28;1120;-47
2021/12/08 13:38:14;;;;;;;;;;;;;;;5.18;67.89;94606.56;5035242;28;960;-47
2021/12/08 13:40:47;;;;;;;;;;;;;;;5.17;67.87;94611.03;5035050;28;1085;-47
2021/12/08 13:43:31;;;;;;;;;;;;;;;5.11;68.38;94613.44;5034930;28;1914;-47
2021/12/08 13:45:58;;;;;;;;;;;;;;;5.03;68.80;94619.44;5034908;28;1212;-46
2021/12/08 13:48:24;;;;;;;;;;;;;;;4.99;68.16;94623.31;5034974;28;1057;-47
2021/12/08 13:50:51;;;;;;;;;;;;;;;5.13;67.78;94622.09;5034878;28;1005;-47
2021/12/08 13:53:17;;;;;;;;;;;;;;;5.12;68.53;94631.00;5035060;28;1024;-47
2021/12/08 13:55:44;;;;;;;;;;;;;;;5.20;69.09;94633.78;5034939;28;1001;-47
2021/12/08 13:58:16;;;;;;;;;;;;;;;5.29;69.90;94627.63;5034615;28;1999;-47
2021/12/08 14:00:46;;;;;;;;;;;;;;;5.35;69.25;94631.53;5034968;28;1065;-46
2021/12/08 14:03:18;;;;;;;;;;;;;;;5.37;69.77;94629.56;5034379;28;1913;-47
2021/12/08 14:05:47;;;;;;;;;;;;;;;5.23;69.84;94633.50;5034492;28;1017;-47
2021/12/08 14:08:15;;;;;;;;;;;;;;;5.16;69.83;94638.53;5034480;28;1054;-47
2021/12/08 14:10:46;;;;;;;;;;;;;;;5.19;70.38;94629.47;5034426;28;989;-46
2021/12/08 14:13:14;;;;;;;;;;;;;;;4.94;69.63;94630.88;5034663;28;1042;-47
2021/12/08 14:15:44;;;;;;;;;;;;;;;4.70;70.19;94642.69;5034451;28;1309;-47
2021/12/08 14:18:10;;;;;;;;;;;;;;;4.69;70.49;94643.69;5034036;28;1029;-47